Terminal Aerodrome Forecast
Issued by NWS

Home | Current Version | Previous Version | Graphics & Text | Print | Product List | Glossary On
Versions: 1 2 3 4 5 6 7 8 9 10 11 12 13 14 15 16 17 18 19 20 21 22 23 24 25
000
FTUS43 KLSX 242338
TAFSUS
TAF
KSUS 242338Z 2500/2524 17009KT P6SM OVC090
     FM250300 15007KT 6SM -RA VCTS OVC050CB
      TEMPO 2503/2506 3SM TSRA OVC030CB
     FM251200 16008KT P6SM BKN070
     FM251700 15012G19KT 6SM -RA VCTS BKN035CB=

USA.gov is the U.S. government's official web portal to all federal, state and local government web resources and services.